Time;durP1;ratioP1;P1;durP2;ratioP2;P2;SDS_P1;SDS_P2;PMS_P1;PMS_P2;Temp;Humidity;BMP_temperature;BMP_pressure;BME280_temperature;BME280_humidity;BME280_pressure;Samples;Min_cycle;Max_cycle;Signal;HPM_P1;HPM_P2
2023/08/26 00:02:19;;;;;;;31.33;27.45;;;18.80;99.90;;;;;;5047825;28;20037;-74
2023/08/26 00:04:46;;;;;;;28.20;25.20;;;18.80;99.90;;;;;;5048054;28;20102;-75
2023/08/26 00:07:12;;;;;;;27.65;24.85;;;18.80;99.90;;;;;;5046216;28;20096;-75
2023/08/26 00:09:39;;;;;;;26.98;24.17;;;18.70;99.90;;;;;;5046592;28;20067;-75
2023/08/26 00:12:05;;;;;;;29.83;26.75;;;18.70;99.90;;;;;;5036490;28;20485;-75
2023/08/26 00:14:31;;;;;;;30.10;26.40;;;18.70;99.90;;;;;;5048626;28;20041;-74
2023/08/26 00:16:57;;;;;;;26.30;23.60;;;18.70;99.90;;;;;;5046468;28;20047;-74
2023/08/26 00:19:23;;;;;;;30.27;25.83;;;18.60;99.90;;;;;;5039475;28;20110;-75
2023/08/26 00:21:50;;;;;;;26.95;24.13;;;18.60;99.90;;;;;;5059861;28;20781;-75
2023/08/26 00:24:17;;;;;;;25.63;22.90;;;18.60;99.90;;;;;;5046750;28;20487;-75
2023/08/26 00:26:42;;;;;;;26.50;23.77;;;18.60;99.90;;;;;;5050294;28;20049;-76
2023/08/26 00:29:08;;;;;;;30.42;25.77;;;18.50;99.90;;;;;;5041045;28;20070;-74
2023/08/26 00:31:34;;;;;;;27.05;24.10;;;18.50;99.90;;;;;;5039424;28;20059;-75
2023/08/26 00:34:02;;;;;;;26.85;24.08;;;18.50;99.90;;;;;;5042149;28;20106;-74
2023/08/26 00:36:28;;;;;;;27.60;24.65;;;18.40;99.90;;;;;;5050436;28;20044;-75
2023/08/26 00:38:54;;;;;;;25.10;22.50;;;18.40;99.90;;;;;;5038700;28;20041;-75
2023/08/26 00:41:19;;;;;;;27.55;24.60;;;18.40;99.90;;;;;;5044625;28;20120;-74
2023/08/26 00:43:46;;;;;;;26.60;23.88;;;18.40;99.90;;;;;;5048714;28;20479;-74
2023/08/26 00:46:14;;;;;;;26.27;23.60;;;18.40;99.90;;;;;;5041807;28;20048;-76
2023/08/26 00:48:40;;;;;;;26.70;23.02;;;18.40;99.90;;;;;;5045222;28;20045;-75
2023/08/26 00:51:06;;;;;;;27.00;24.27;;;18.40;99.90;;;;;;5047550;28;20840;-74
2023/08/26 00:53:32;;;;;;;26.38;22.85;;;18.40;99.90;;;;;;5039585;28;20124;-76
2023/08/26 00:55:59;;;;;;;23.50;21.17;;;18.40;99.90;;;;;;5048383;28;20392;-74
2023/08/26 00:58:26;;;;;;;27.63;23.63;;;18.30;99.90;;;;;;5043026;28;20108;-75
2023/08/26 01:00:52;;;;;;;23.10;20.70;;;18.30;99.90;;;;;;5043196;28;20037;-74
2023/08/26 01:03:18;;;;;;;21.95;19.70;;;18.30;99.90;;;;;;5034951;28;20848;-75
2023/08/26 01:05:44;;;;;;;21.20;18.95;;;18.30;99.90;;;;;;5063268;28;20048;-75
2023/08/26 01:08:10;;;;;;;22.00;19.25;;;18.30;99.90;;;;;;5044168;28;20049;-75
2023/08/26 01:11:09;;;;;;;21.40;19.25;;;18.30;99.90;;;;;;5048408;28;20037;-75
2023/08/26 01:14:01;;;;;;;20.85;18.73;;;18.30;99.90;;;;;;5039766;28;20081;-75
2023/08/26 01:16:29;;;;;;;20.08;17.95;;;18.20;99.90;;;;;;5049395;28;20305;-76
2023/08/26 01:18:55;;;;;;;20.77;18.58;;;18.10;99.90;;;;;;5038036;28;20448;-74
2023/08/26 01:21:28;;;;;;;20.30;18.02;;;18.10;99.90;;;;;;5046852;28;20128;-75
2023/08/26 01:23:54;;;;;;;22.20;18.98;;;18.10;99.90;;;;;;5039923;28;20123;-76
2023/08/26 01:26:20;;;;;;;20.23;18.13;;;18.10;99.90;;;;;;5050472;28;20184;-75
2023/08/26 01:28:46;;;;;;;20.75;18.52;;;18.10;99.90;;;;;;5044324;28;20040;-75
2023/08/26 01:31:13;;;;;;;19.60;17.50;;;18.00;99.90;;;;;;5044908;28;20045;-76
2023/08/26 01:33:53;;;;;;;17.73;16.00;;;18.00;99.90;;;;;;5046493;28;20052;-76
2023/08/26 01:36:22;;;;;;;17.75;15.85;;;17.90;99.90;;;;;;5049573;28;20049;-75
2023/08/26 01:38:48;;;;;;;16.10;14.60;;;17.90;99.90;;;;;;5043617;28;20044;-74
2023/08/26 01:41:18;;;;;;;15.52;13.95;;;17.90;99.90;;;;;;5047673;28;20131;-76
2023/08/26 01:43:46;;;;;;;16.60;13.32;;;17.80;99.90;;;;;;5044818;28;20056;-74
2023/08/26 01:46:12;;;;;;;15.05;13.50;;;17.80;99.90;;;;;;5049264;28;20116;-75
2023/08/26 01:48:38;;;;;;;15.32;13.82;;;17.80;99.90;;;;;;5044560;28;20132;-74
2023/08/26 01:51:03;;;;;;;15.00;13.07;;;17.70;99.90;;;;;;5042396;28;20136;-75
2023/08/26 01:53:29;;;;;;;15.38;13.73;;;17.70;99.90;;;;;;5043195;28;20510;-75
2023/08/26 01:55:55;;;;;;;15.52;13.07;;;17.60;99.90;;;;;;5039629;28;20474;-74
2023/08/26 01:58:21;;;;;;;13.88;12.45;;;17.60;99.90;;;;;;5038450;28;20028;-75
2023/08/26 02:00:47;;;;;;;15.93;12.35;;;17.60;99.90;;;;;;5030554;28;20725;-75
2023/08/26 02:03:12;;;;;;;14.32;12.68;;;17.50;99.90;;;;;;5042731;28;20033;-75
2023/08/26 02:05:38;;;;;;;15.20;13.35;;;17.50;99.90;;;;;;5049426;28;20555;-75
2023/08/26 02:08:04;;;;;;;16.98;13.82;;;17.50;99.90;;;;;;5045315;28;20087;-74
2023/08/26 02:10:30;;;;;;;14.00;12.50;;;17.40;99.90;;;;;;5047253;28;20053;-75
2023/08/26 02:12:55;;;;;;;17.05;13.90;;;17.40;99.90;;;;;;5047148;28;20029;-74
2023/08/26 02:15:21;;;;;;;14.63;13.07;;;17.30;99.90;;;;;;5044436;28;20037;-75
2023/08/26 02:17:47;;;;;;;14.15;12.57;;;17.30;99.90;;;;;;5045546;28;20435;-75
2023/08/26 02:20:13;;;;;;;15.25;13.52;;;17.30;99.90;;;;;;5037559;28;20049;-75
2023/08/26 02:22:38;;;;;;;14.77;12.48;;;17.30;99.90;;;;;;5048346;28;20049;-76
2023/08/26 02:25:05;;;;;;;16.13;13.23;;;17.30;99.90;;;;;;5040993;28;20061;-75
2023/08/26 02:27:31;;;;;;;14.85;13.32;;;17.20;99.90;;;;;;5036999;28;20121;-75
2023/08/26 02:29:57;;;;;;;15.82;12.35;;;17.20;99.90;;;;;;5045608;28;20037;-74
2023/08/26 02:32:23;;;;;;;17.40;15.00;;;17.20;99.90;;;;;;5048000;28;20045;-76
2023/08/26 02:34:49;;;;;;;13.80;12.40;;;17.20;99.90;;;;;;5042606;28;20471;-75
2023/08/26 02:37:14;;;;;;;15.15;13.50;;;17.20;99.90;;;;;;5038274;28;20042;-76
2023/08/26 02:39:40;;;;;;;15.65;13.65;;;17.20;99.90;;;;;;5038326;28;20470;-74
2023/08/26 02:42:06;;;;;;;14.27;12.88;;;17.20;99.90;;;;;;5045739;28;20037;-74
2023/08/26 02:44:32;;;;;;;13.73;12.32;;;17.20;99.90;;;;;;5044171;28;20443;-74
2023/08/26 02:46:57;;;;;;;15.50;13.82;;;17.20;99.90;;;;;;5047217;28;20044;-73
2023/08/26 02:49:23;;;;;;;14.10;12.68;;;17.20;99.90;;;;;;5043908;28;20379;-75
2023/08/26 02:51:49;;;;;;;15.32;13.70;;;17.20;99.90;;;;;;5041111;28;20139;-75
2023/08/26 02:54:14;;;;;;;14.15;12.77;;;17.20;99.90;;;;;;5033929;28;20051;-74
2023/08/26 02:56:40;;;;;;;14.98;12.45;;;17.20;99.90;;;;;;5041153;28;20045;-74
2023/08/26 02:59:06;;;;;;;16.35;14.15;;;17.20;99.90;;;;;;5038757;28;20379;-74
2023/08/26 03:01:31;;;;;;;14.02;12.57;;;17.10;99.90;;;;;;5049085;28;20084;-75
2023/08/26 03:03:57;;;;;;;15.38;12.75;;;17.20;99.90;;;;;;5040056;28;20040;-75
2023/08/26 03:06:23;;;;;;;15.65;13.10;;;17.20;99.90;;;;;;5046657;28;20038;-73
2023/08/26 03:08:49;;;;;;;14.02;12.13;;;17.20;99.90;;;;;;5033592;28;20045;-74
2023/08/26 03:11:14;;;;;;;16.30;12.35;;;17.10;99.90;;;;;;5039789;28;20047;-74
2023/08/26 03:13:40;;;;;;;14.45;12.50;;;17.20;99.90;;;;;;5042382;28;20064;-75
2023/08/26 03:16:09;;;;;;;13.25;11.63;;;17.20;99.90;;;;;;5042557;28;20051;-74
2023/08/26 03:18:34;;;;;;;14.88;12.60;;;17.20;99.90;;;;;;5039260;28;20118;-74
2023/08/26 03:21:04;;;;;;;16.75;12.68;;;17.10;99.90;;;;;;5044144;28;20052;-76
2023/08/26 03:23:30;;;;;;;15.32;12.05;;;17.10;99.90;;;;;;5043531;28;20118;-74
2023/08/26 03:25:56;;;;;;;12.60;11.40;;;17.10;99.90;;;;;;5043521;28;20064;-74
2023/08/26 03:28:22;;;;;;;13.55;11.70;;;17.10;99.90;;;;;;5041649;28;20041;-75
2023/08/26 03:30:47;;;;;;;14.05;11.68;;;17.10;99.90;;;;;;5047575;28;20037;-74
2023/08/26 03:33:13;;;;;;;14.68;11.70;;;17.10;99.90;;;;;;5039492;28;20601;-75
2023/08/26 03:35:39;;;;;;;12.23;10.95;;;17.00;99.90;;;;;;5044286;28;20048;-75
2023/08/26 03:38:05;;;;;;;12.53;11.23;;;17.10;99.90;;;;;;5045556;28;20041;-75
2023/08/26 03:40:31;;;;;;;13.48;10.68;;;17.10;99.90;;;;;;5036633;28;20319;-74
2023/08/26 03:42:57;;;;;;;12.88;11.30;;;17.10;99.90;;;;;;5038061;28;20045;-75
2023/08/26 03:45:23;;;;;;;12.77;11.30;;;17.00;99.90;;;;;;5039211;28;20040;-75
2023/08/26 03:47:49;;;;;;;12.27;10.30;;;17.10;99.90;;;;;;5047467;28;20080;-75
2023/08/26 03:50:15;;;;;;;12.18;10.48;;;17.00;99.90;;;;;;5037414;28;20392;-74
2023/08/26 03:52:40;;;;;;;13.20;10.13;;;17.00;99.90;;;;;;5036661;28;20037;-74
2023/08/26 03:55:07;;;;;;;11.73;10.48;;;16.90;99.90;;;;;;5042098;28;20595;-75
2023/08/26 03:57:32;;;;;;;11.93;10.82;;;16.90;99.90;;;;;;5049841;28;20123;-75
2023/08/26 03:59:59;;;;;;;12.75;11.07;;;16.90;99.90;;;;;;5047835;28;20113;-74
2023/08/26 04:02:24;;;;;;;15.48;12.07;;;16.90;99.90;;;;;;5048174;28;20239;-74
2023/08/26 04:04:50;;;;;;;11.93;10.48;;;16.90;99.90;;;;;;5048473;28;20063;-74
2023/08/26 04:07:16;;;;;;;14.57;11.38;;;16.90;99.90;;;;;;5050306;28;20045;-75
2023/08/26 04:09:42;;;;;;;16.42;11.48;;;16.90;99.90;;;;;;5045262;28;20076;-75
2023/08/26 04:12:08;;;;;;;12.02;10.23;;;16.90;99.90;;;;;;5041816;28;20045;-75
2023/08/26 04:14:33;;;;;;;12.20;10.90;;;16.90;99.90;;;;;;5042245;28;20049;-73
2023/08/26 04:17:01;;;;;;;12.23;10.40;;;16.80;99.90;;;;;;5048628;28;20985;-75
2023/08/26 04:19:27;;;;;;;;;;;16.80;99.90;;;;;;5053186;28;20086;-75
2023/08/26 04:21:52;;;;;;;12.48;10.55;;;16.80;99.90;;;;;;5047915;28;19925;-75
2023/08/26 04:24:18;;;;;;;11.85;10.50;;;16.80;99.90;;;;;;5048556;28;20048;-75
2023/08/26 04:26:44;;;;;;;13.10;10.73;;;16.80;99.90;;;;;;5049009;28;20566;-75
2023/08/26 04:29:10;;;;;;;14.52;10.73;;;16.80;99.90;;;;;;5042424;28;20049;-76
2023/08/26 04:31:35;;;;;;;11.80;10.30;;;16.80;99.90;;;;;;5063024;28;20126;-74
2023/08/26 04:34:01;;;;;;;13.00;10.80;;;16.80;99.90;;;;;;5040899;28;20549;-75
2023/08/26 04:36:27;;;;;;;11.50;10.30;;;16.80;99.90;;;;;;5048524;28;20048;-74
2023/08/26 04:38:52;;;;;;;12.43;11.20;;;16.80;99.90;;;;;;5035992;28;20119;-75
2023/08/26 04:41:18;;;;;;;12.00;10.77;;;16.80;99.90;;;;;;5048317;28;20052;-75
2023/08/26 04:43:44;;;;;;;11.85;10.65;;;16.90;99.90;;;;;;5043784;28;20045;-74
2023/08/26 04:46:10;;;;;;;13.05;11.25;;;16.80;99.90;;;;;;5037133;28;20873;-73
2023/08/26 04:48:35;;;;;;;12.07;10.80;;;16.90;99.90;;;;;;5041080;28;20048;-74
2023/08/26 04:51:04;;;;;;;13.98;10.52;;;16.80;99.90;;;;;;5043803;28;20049;-75
2023/08/26 04:53:30;;;;;;;13.65;10.27;;;16.80;99.90;;;;;;5044531;28;20049;-75
2023/08/26 04:55:56;;;;;;;13.68;10.57;;;16.90;99.90;;;;;;5038918;28;20049;-74
2023/08/26 04:58:21;;;;;;;13.32;11.13;;;16.90;99.90;;;;;;5049454;28;20049;-74
2023/08/26 05:00:47;;;;;;;11.55;10.30;;;16.90;99.90;;;;;;5042069;28;20108;-75
2023/08/26 05:03:13;;;;;;;15.35;11.52;;;16.90;99.90;;;;;;5047087;28;20586;-76
2023/08/26 05:05:41;;;;;;;11.60;10.40;;;16.90;99.90;;;;;;5045202;28;20129;-75
2023/08/26 05:08:07;;;;;;;12.00;10.40;;;16.90;99.90;;;;;;5047990;28;20428;-75
2023/08/26 05:10:35;;;;;;;11.40;10.23;;;16.90;99.90;;;;;;5048267;28;20609;-74
2023/08/26 05:13:01;;;;;;;11.23;10.00;;;16.90;99.90;;;;;;5045891;28;20049;-76
2023/08/26 05:15:28;;;;;;;13.25;10.93;;;16.90;99.90;;;;;;5048390;28;20055;-73
2023/08/26 05:17:54;;;;;;;11.18;10.00;;;16.90;99.90;;;;;;5046810;28;20040;-75
2023/08/26 05:20:20;;;;;;;13.75;10.30;;;16.90;99.90;;;;;;5046145;28;20138;-75
2023/08/26 05:22:46;;;;;;;11.80;10.43;;;16.90;99.90;;;;;;5048602;28;20526;-74
2023/08/26 05:25:12;;;;;;;13.02;11.20;;;16.90;99.90;;;;;;5046439;28;20047;-75
2023/08/26 05:27:37;;;;;;;12.98;10.63;;;17.00;99.90;;;;;;5041450;28;20559;-75
2023/08/26 05:30:04;;;;;;;12.93;10.63;;;17.00;99.90;;;;;;5041240;28;20574;-75
2023/08/26 05:32:30;;;;;;;14.52;11.48;;;17.00;99.90;;;;;;5045049;28;20060;-75
2023/08/26 05:34:56;;;;;;;13.85;10.52;;;17.00;99.90;;;;;;5043176;28;20399;-75
2023/08/26 05:37:21;;;;;;;11.15;9.90;;;17.00;99.90;;;;;;5039265;28;20033;-75
2023/08/26 05:39:47;;;;;;;12.95;11.40;;;17.00;99.90;;;;;;5048052;28;20059;-75
2023/08/26 05:42:13;;;;;;;14.23;10.93;;;17.00;99.90;;;;;;5038892;28;20041;-74
2023/08/26 05:44:39;;;;;;;23.17;13.27;;;17.00;99.90;;;;;;5040023;28;20037;-75
2023/08/26 05:47:05;;;;;;;14.40;11.60;;;17.00;99.90;;;;;;5045578;28;20399;-73
2023/08/26 05:49:30;;;;;;;13.93;11.70;;;17.00;99.90;;;;;;5036073;28;20037;-74
2023/08/26 05:51:56;;;;;;;14.75;12.63;;;17.00;99.90;;;;;;5038139;28;20040;-75
2023/08/26 05:54:22;;;;;;;14.82;12.40;;;17.00;99.90;;;;;;5063149;28;20052;-75
2023/08/26 05:56:48;;;;;;;16.08;12.73;;;17.00;99.90;;;;;;5048338;28;20033;-74
2023/08/26 05:59:14;;;;;;;15.10;13.52;;;17.00;99.90;;;;;;5048803;28;20064;-76
2023/08/26 06:01:39;;;;;;;15.88;14.18;;;17.10;99.90;;;;;;5047847;28;20106;-75
2023/08/26 06:04:06;;;;;;;17.05;15.02;;;17.00;99.90;;;;;;5047139;28;20076;-75
2023/08/26 06:06:33;;;;;;;18.55;15.40;;;17.00;99.90;;;;;;5032627;28;20455;-76
2023/08/26 06:08:59;;;;;;;18.30;16.25;;;17.10;99.90;;;;;;5038498;28;20041;-75
2023/08/26 06:11:24;;;;;;;18.52;16.55;;;17.10;99.90;;;;;;5045330;28;20102;-75
2023/08/26 06:13:51;;;;;;;18.33;16.52;;;17.00;99.90;;;;;;5049132;28;20172;-74
2023/08/26 06:16:19;;;;;;;17.75;15.93;;;17.00;99.90;;;;;;5041263;28;20826;-76
2023/08/26 06:18:48;;;;;;;17.98;16.15;;;17.00;99.90;;;;;;5049286;28;20106;-75
2023/08/26 06:21:14;;;;;;;19.30;17.30;;;17.00;99.90;;;;;;5041535;28;20151;-75
2023/08/26 06:23:40;;;;;;;21.33;19.13;;;17.00;99.90;;;;;;5037733;28;20091;-74
2023/08/26 06:26:06;;;;;;;19.50;17.80;;;17.00;99.90;;;;;;5035969;28;20784;-77
2023/08/26 06:28:32;;;;;;;18.52;16.88;;;17.00;99.90;;;;;;5041119;28;20488;-73
2023/08/26 06:30:59;;;;;;;19.80;17.77;;;17.00;99.90;;;;;;5043137;28;20049;-75
2023/08/26 06:33:25;;;;;;;;;;;17.00;99.90;;;;;;5048529;28;20048;-73
2023/08/26 06:35:51;;;;;;;19.08;17.17;;;16.90;99.90;;;;;;5043962;28;19929;-80
2023/08/26 06:38:16;;;;;;;20.15;18.20;;;16.90;99.90;;;;;;5046580;28;20392;-78
2023/08/26 06:40:42;;;;;;;19.55;17.63;;;16.90;99.90;;;;;;5047576;28;20088;-80
2023/08/26 06:43:08;;;;;;;20.73;18.63;;;16.90;99.90;;;;;;5034931;28;20435;-78
2023/08/26 06:45:34;;;;;;;24.25;19.83;;;17.00;99.90;;;;;;5042608;28;20041;-77
2023/08/26 06:48:00;;;;;;;19.05;17.05;;;16.90;99.90;;;;;;5034928;28;20057;-76
2023/08/26 06:50:26;;;;;;;18.95;16.90;;;16.90;99.90;;;;;;5031830;28;20033;-78
2023/08/26 06:53:00;;;;;;;21.40;18.73;;;16.90;99.90;;;;;;5047129;28;20036;-78
2023/08/26 06:55:26;;;;;;;20.73;18.73;;;16.90;99.90;;;;;;5036548;28;20107;-78
2023/08/26 06:57:54;;;;;;;21.10;19.05;;;16.90;99.90;;;;;;5038257;28;20124;-80
2023/08/26 07:00:20;;;;;;;21.42;19.30;;;16.90;99.90;;;;;;5028780;28;20053;-80
2023/08/26 07:02:46;;;;;;;21.80;19.58;;;17.00;99.90;;;;;;5034305;28;20486;-78
2023/08/26 07:05:12;;;;;;;19.42;17.40;;;17.00;99.90;;;;;;5035828;28;20056;-79
2023/08/26 07:07:38;;;;;;;18.67;15.80;;;17.00;99.90;;;;;;5046607;28;20041;-79
2023/08/26 07:10:10;;;;;;;18.77;16.77;;;17.00;99.90;;;;;;5036309;28;20049;-79
2023/08/26 07:12:39;;;;;;;19.08;16.90;;;17.00;99.90;;;;;;5041001;28;20390;-79
2023/08/26 07:15:05;;;;;;;21.05;16.55;;;17.10;99.90;;;;;;5040115;28;20056;-80
2023/08/26 07:17:31;;;;;;;19.75;17.38;;;17.00;99.90;;;;;;5044260;28;20633;-80
2023/08/26 07:19:59;;;;;;;20.75;17.48;;;17.00;99.90;;;;;;5042030;28;20053;-78
2023/08/26 07:22:25;;;;;;;21.45;17.63;;;17.00;99.90;;;;;;5047422;28;20368;-77
2023/08/26 07:24:52;;;;;;;20.02;17.88;;;17.00;99.90;;;;;;5042463;28;20110;-80
2023/08/26 07:27:18;;;;;;;20.00;17.90;;;17.00;99.90;;;;;;5048233;28;20092;-77
2023/08/26 07:29:43;;;;;;;20.42;17.88;;;17.00;99.90;;;;;;5041888;28;20150;-78
2023/08/26 07:32:09;;;;;;;18.85;17.05;;;17.00;99.90;;;;;;5042009;28;20057;-79
2023/08/26 07:34:35;;;;;;;20.38;16.15;;;17.00;99.90;;;;;;5039499;28;20049;-79
2023/08/26 07:37:01;;;;;;;18.33;16.40;;;17.00;99.90;;;;;;5036590;28;20416;-79
2023/08/26 07:39:29;;;;;;;19.52;17.10;;;17.00;99.90;;;;;;5041710;28;20041;-79
2023/08/26 07:41:55;;;;;;;19.52;17.00;;;17.00;99.90;;;;;;5040548;28;20115;-80
2023/08/26 07:44:20;;;;;;;18.70;16.70;;;16.90;99.90;;;;;;5041441;28;20473;-81
2023/08/26 07:46:46;;;;;;;19.40;17.60;;;17.00;99.90;;;;;;5049615;28;20479;-79
2023/08/26 07:49:12;;;;;;;18.35;16.45;;;17.00;99.90;;;;;;5045824;28;20060;-87
2023/08/26 07:51:38;;;;;;;20.20;18.23;;;17.10;99.90;;;;;;5047903;28;20037;-81
2023/08/26 07:54:04;;;;;;;18.05;16.15;;;17.10;99.90;;;;;;5051638;28;20037;-83
2023/08/26 07:56:29;;;;;;;18.20;16.38;;;17.10;99.90;;;;;;5043411;28;20502;-83
2023/08/26 07:58:55;;;;;;;17.60;15.77;;;17.10;99.90;;;;;;5038008;28;20392;-84
2023/08/26 08:01:21;;;;;;;18.08;16.27;;;17.20;99.90;;;;;;5039929;28;20045;-85
2023/08/26 08:03:47;;;;;;;17.63;15.45;;;17.10;99.90;;;;;;5048162;28;20622;-80
2023/08/26 08:06:13;;;;;;;16.38;14.88;;;17.10;99.90;;;;;;5050636;28;20053;-80
2023/08/26 08:08:38;;;;;;;16.23;14.25;;;17.10;99.90;;;;;;5048182;28;20364;-81
2023/08/26 08:11:04;;;;;;;15.60;14.00;;;17.10;99.90;;;;;;5049323;28;20059;-78
2023/08/26 08:13:30;;;;;;;15.70;13.90;;;17.10;99.90;;;;;;5061783;28;20124;-78
2023/08/26 08:15:56;;;;;;;15.25;13.75;;;17.10;99.90;;;;;;5039992;28;20127;-77
2023/08/26 08:18:21;;;;;;;15.13;13.35;;;17.10;99.90;;;;;;5040239;28;20092;-76
2023/08/26 08:20:47;;;;;;;14.25;12.75;;;17.20;99.90;;;;;;5040953;28;20044;-81
2023/08/26 08:23:13;;;;;;;16.42;13.38;;;17.20;99.90;;;;;;5043496;28;20110;-88
2023/08/26 08:25:39;;;;;;;14.88;13.30;;;17.20;99.90;;;;;;5050443;28;20496;-81
2023/08/26 08:28:05;;;;;;;15.32;12.68;;;17.30;99.90;;;;;;5050622;28;20048;-84
2023/08/26 08:30:31;;;;;;;13.68;11.88;;;17.30;99.90;;;;;;5042897;28;20462;-79
2023/08/26 08:32:56;;;;;;;13.63;12.23;;;17.30;99.90;;;;;;5038539;28;20381;-80
2023/08/26 08:35:22;;;;;;;14.25;11.77;;;17.40;99.90;;;;;;5037618;28;20051;-80
2023/08/26 08:37:48;;;;;;;13.15;11.75;;;17.50;99.90;;;;;;5043471;28;20045;-81
2023/08/26 08:40:13;;;;;;;15.18;12.00;;;17.60;99.90;;;;;;5045645;28;20049;-81
2023/08/26 08:42:42;;;;;;;13.70;11.07;;;17.70;99.90;;;;;;5043242;28;20041;-83
2023/08/26 08:45:09;;;;;;;17.00;11.88;;;17.80;99.90;;;;;;5042888;28;20059;-76
2023/08/26 08:47:35;;;;;;;15.38;10.68;;;17.90;99.90;;;;;;5045730;28;20477;-78
2023/08/26 08:50:01;;;;;;;15.02;11.35;;;17.90;99.90;;;;;;5049757;28;20088;-79
2023/08/26 08:52:28;;;;;;;13.27;10.88;;;18.00;99.90;;;;;;5049451;28;20049;-81
2023/08/26 08:54:54;;;;;;;12.90;10.55;;;18.10;99.90;;;;;;5051234;28;20053;-80
2023/08/26 08:57:28;;;;;;;13.85;11.18;;;18.20;99.90;;;;;;5041864;28;20045;-78
2023/08/26 08:59:55;;;;;;;14.25;10.80;;;18.20;99.90;;;;;;5042993;28;20116;-81
2023/08/26 09:02:21;;;;;;;14.90;11.30;;;18.30;99.90;;;;;;5045175;28;20492;-84
2023/08/26 09:04:48;;;;;;;15.45;11.32;;;18.30;99.90;;;;;;5044899;28;20447;-78
2023/08/26 09:07:20;;;;;;;15.02;11.05;;;18.40;99.90;;;;;;5046970;28;20384;-80
2023/08/26 09:09:46;;;;;;;15.35;10.75;;;18.30;99.90;;;;;;5058111;28;20041;-80
2023/08/26 09:12:12;;;;;;;12.50;9.68;;;18.30;99.90;;;;;;5048526;28;20408;-78
2023/08/26 09:14:37;;;;;;;11.52;9.73;;;18.40;99.90;;;;;;5042276;28;20130;-78
2023/08/26 09:17:23;;;;;;;12.25;8.23;;;18.50;99.90;;;;;;5041373;28;20079;-79
2023/08/26 09:19:58;;;;;;;12.90;8.88;;;18.60;99.90;;;;;;5043982;28;20135;-82
2023/08/26 09:22:25;;;;;;;11.48;8.48;;;18.70;99.90;;;;;;5041326;28;20051;-80
2023/08/26 09:24:57;;;;;;;;;;;18.70;99.90;;;;;;5041100;28;20049;-83
2023/08/26 09:27:24;;;;;;;12.50;9.00;;;18.80;99.90;;;;;;5045184;28;19924;-77
2023/08/26 09:29:51;;;;;;;13.50;7.85;;;18.80;99.90;;;;;;5049254;28;20047;-77
2023/08/26 09:32:32;;;;;;;11.77;7.82;;;18.80;99.90;;;;;;5041444;28;20882;-78
2023/08/26 09:35:17;;;;;;;9.88;7.22;;;18.70;99.90;;;;;;5047050;28;20053;-78
2023/08/26 09:37:45;;;;;;;9.93;6.82;;;18.70;99.90;;;;;;5048187;28;20099;-78
2023/08/26 09:40:18;;;;;;;10.23;6.25;;;18.70;99.90;;;;;;5049293;28;20594;-78
2023/08/26 09:42:44;;;;;;;10.65;6.05;;;18.70;99.90;;;;;;5044802;28;20188;-77
2023/08/26 09:45:13;;;;;;;8.63;5.60;;;18.80;99.90;;;;;;5041894;28;20058;-77
2023/08/26 09:47:39;;;;;;;12.23;5.57;;;18.90;99.90;;;;;;5041047;28;20168;-79
2023/08/26 09:50:06;;;;;;;12.03;5.43;;;19.10;99.90;;;;;;5040036;28;20040;-81
2023/08/26 09:52:42;;;;;;;;;;;19.20;99.90;;;;;;5047847;28;20076;-78
2023/08/26 09:55:09;;;;;;;9.10;4.93;;;19.30;99.90;;;;;;5047541;28;20284;-79
2023/08/26 09:57:35;;;;;;;10.52;4.57;;;19.30;99.90;;;;;;5047125;28;20513;-79
2023/08/26 10:00:01;;;;;;;13.90;4.68;;;19.50;99.90;;;;;;5047946;28;20088;-79
2023/08/26 10:02:29;;;;;;;8.57;4.93;;;19.70;99.90;;;;;;5045612;28;20049;-79
2023/08/26 10:05:00;;;;;;;7.78;3.95;;;19.80;99.90;;;;;;5041518;28;20057;-80
2023/08/26 10:07:29;;;;;;;9.38;3.92;;;19.90;99.90;;;;;;5037246;28;20416;-80
2023/08/26 10:10:09;;;;;;;8.85;3.95;;;20.00;99.90;;;;;;5038094;28;20033;-79
2023/08/26 10:12:40;;;;;;;8.45;4.35;;;20.10;99.90;;;;;;5039654;28;20387;-78
2023/08/26 10:15:11;;;;;;;9.68;4.15;;;20.10;99.90;;;;;;5047426;28;20045;-78
2023/08/26 10:17:40;;;;;;;6.78;3.28;;;20.10;99.90;;;;;;5048373;28;20068;-76
2023/08/26 10:20:07;;;;;;;6.05;2.80;;;20.20;99.90;;;;;;5043159;28;20041;-76
2023/08/26 10:22:34;;;;;;;7.63;2.63;;;20.20;99.90;;;;;;5048058;28;20079;-75
2023/08/26 10:25:00;;;;;;;8.18;2.60;;;20.30;99.90;;;;;;5048084;28;20045;-75
2023/08/26 10:27:27;;;;;;;6.97;2.85;;;20.30;99.90;;;;;;5036369;28;20037;-76
2023/08/26 10:29:54;;;;;;;5.47;2.63;;;20.30;99.90;;;;;;5047152;28;20288;-74
2023/08/26 10:32:22;;;;;;;5.97;2.55;;;20.20;99.90;;;;;;5048518;28;20184;-75
2023/08/26 10:34:57;;;;;;;10.15;2.70;;;20.20;99.90;;;;;;5037510;28;20055;-74
2023/08/26 10:37:31;;;;;;;6.75;2.58;;;20.30;99.90;;;;;;5043051;28;20049;-75
2023/08/26 10:40:12;;;;;;;8.02;2.55;;;20.40;99.90;;;;;;5046529;28;20507;-74
2023/08/26 10:42:38;;;;;;;7.65;2.45;;;20.50;99.90;;;;;;5041917;28;20037;-76
2023/08/26 10:45:14;;;;;;;7.80;2.97;;;20.70;99.90;;;;;;5043141;28;20128;-77
2023/08/26 10:47:44;;;;;;;6.63;2.22;;;20.80;99.90;;;;;;5045814;28;20425;-74
2023/08/26 10:50:21;;;;;;;7.70;2.88;;;20.90;99.90;;;;;;5044922;28;20029;-80
2023/08/26 10:53:16;;;;;;;6.35;2.70;;;21.10;99.90;;;;;;5037862;28;20888;-75
2023/08/26 10:55:42;;;;;;;7.15;2.65;;;21.20;99.90;;;;;;5043432;28;20061;-76
2023/08/26 10:58:12;;;;;;;8.43;3.00;;;21.20;99.90;;;;;;5050738;28;20390;-75
2023/08/26 11:00:42;;;;;;;5.10;2.20;;;21.20;99.90;;;;;;5048382;28;20044;-73
2023/08/26 11:03:10;;;;;;;5.75;2.58;;;21.20;99.90;;;;;;5052262;28;20116;-74
2023/08/26 11:05:42;;;;;;;7.07;2.33;;;21.10;99.90;;;;;;5044092;28;20574;-75
2023/08/26 11:08:08;;;;;;;5.55;2.10;;;21.00;99.90;;;;;;5051456;28;20483;-74
2023/08/26 11:10:39;;;;;;;6.63;2.40;;;20.90;99.90;;;;;;5044011;28;20439;-75
2023/08/26 11:13:05;;;;;;;4.07;2.08;;;20.80;99.90;;;;;;5049579;28;20063;-74
2023/08/26 11:15:39;;;;;;;6.10;2.17;;;20.70;99.90;;;;;;5050007;28;20503;-75
2023/08/26 11:18:06;;;;;;;6.05;2.20;;;20.70;99.90;;;;;;5046817;28;20075;-74
2023/08/26 11:20:31;;;;;;;6.20;2.28;;;20.90;99.90;;;;;;5044396;28;20053;-74
2023/08/26 11:22:58;;;;;;;5.25;2.20;;;21.00;99.90;;;;;;5048277;28;20126;-74
2023/08/26 11:25:24;;;;;;;6.25;1.65;;;21.30;99.90;;;;;;5050163;28;20463;-75
2023/08/26 11:27:51;;;;;;;5.97;2.60;;;21.50;99.90;;;;;;5052226;28;20048;-75
2023/08/26 11:30:16;;;;;;;;;;;21.60;99.90;;;;;;5044625;28;20041;-74
2023/08/26 11:32:42;;;;;;;6.40;2.50;;;21.80;99.90;;;;;;5047430;28;19920;-74
2023/08/26 11:35:10;;;;;;;5.97;2.20;;;21.80;99.90;;;;;;5049530;28;20056;-75
2023/08/26 11:37:42;;;;;;;6.68;2.08;;;21.80;99.90;;;;;;5051580;28;20045;-75
2023/08/26 11:40:09;;;;;;;6.07;1.50;;;21.80;99.90;;;;;;5051498;28;20045;-74
2023/08/26 11:42:35;;;;;;;4.03;1.60;;;21.70;99.90;;;;;;5050392;28;20049;-74
2023/08/26 11:45:01;;;;;;;5.28;1.50;;;21.60;99.90;;;;;;5049134;28;20419;-75
2023/08/26 11:47:27;;;;;;;3.97;1.40;;;21.60;99.90;;;;;;5048692;28;20053;-74
2023/08/26 11:49:56;;;;;;;4.95;1.90;;;21.50;99.90;;;;;;5040765;28;20376;-74
2023/08/26 11:52:42;;;;;;;4.57;1.48;;;21.50;99.90;;;;;;5039691;28;20117;-75
2023/08/26 11:55:09;;;;;;;3.17;1.40;;;21.40;99.90;;;;;;5048559;28;20045;-75
2023/08/26 11:57:39;;;;;;;3.53;1.35;;;21.50;99.90;;;;;;5048779;28;20041;-74
2023/08/26 12:00:13;;;;;;;2.88;1.00;;;21.50;99.90;;;;;;5049380;28;20412;-74
2023/08/26 12:02:44;;;;;;;2.05;0.90;;;21.60;99.90;;;;;;5048416;28;20045;-75
2023/08/26 12:05:11;;;;;;;3.33;1.00;;;21.70;99.90;;;;;;5049978;28;20134;-74
2023/08/26 12:07:46;;;;;;;2.53;1.08;;;21.70;99.90;;;;;;5051189;28;20447;-74
2023/08/26 12:10:13;;;;;;;4.30;1.40;;;21.90;99.90;;;;;;5042939;28;20452;-75
2023/08/26 12:12:40;;;;;;;4.50;1.23;;;22.00;99.90;;;;;;5048751;28;20048;-74
2023/08/26 12:15:08;;;;;;;4.03;1.17;;;22.10;99.90;;;;;;5050476;28;20082;-75
2023/08/26 12:17:43;;;;;;;2.47;1.02;;;22.30;99.90;;;;;;5051752;28;20134;-74
2023/08/26 12:20:23;;;;;;;6.45;1.50;;;22.40;99.90;;;;;;5040791;28;20052;-75
2023/08/26 12:22:49;;;;;;;4.88;1.35;;;22.40;99.90;;;;;;5052790;28;20563;-75
2023/08/26 12:25:31;;;;;;;5.30;1.10;;;22.20;99.90;;;;;;5048655;28;20072;-75
2023/08/26 12:28:26;;;;;;;3.15;1.10;;;22.30;99.90;;;;;;5041499;28;20043;-75
2023/08/26 12:30:52;;;;;;;2.90;1.15;;;22.40;99.90;;;;;;5047827;28;20037;-74
2023/08/26 12:33:18;;;;;;;3.47;1.00;;;22.40;99.90;;;;;;5044768;28;20055;-75
2023/08/26 12:35:45;;;;;;;5.03;1.40;;;22.50;99.90;;;;;;5039508;28;20045;-75